createdAt,value
2023-06-12T00:02:18.456Z,15.20
2023-06-12T00:04:48.275Z,15.10
2023-06-12T00:07:17.624Z,15.10
2023-06-12T00:09:46.020Z,15.10
2023-06-12T00:12:14.394Z,15.10
2023-06-12T00:14:42.553Z,15.10
2023-06-12T00:17:10.826Z,15.00
2023-06-12T00:19:39.635Z,15.00
2023-06-12T00:22:09.351Z,15.00
2023-06-12T00:24:37.627Z,14.90
2023-06-12T00:27:06.227Z,14.90
2023-06-12T00:29:34.794Z,14.90
2023-06-12T00:32:03.085Z,14.80
2023-06-12T00:34:31.456Z,14.80
2023-06-12T00:36:59.687Z,14.70
2023-06-12T00:39:29.738Z,14.70
2023-06-12T00:41:57.949Z,14.70
2023-06-12T00:44:26.247Z,14.70
2023-06-12T00:46:55.106Z,14.70
2023-06-12T00:49:23.583Z,14.70
2023-06-12T00:51:53.476Z,14.60
2023-06-12T00:54:21.885Z,14.50
2023-06-12T00:56:51.624Z,14.50
2023-06-12T00:59:20.014Z,14.40
2023-06-12T01:01:48.228Z,14.30
2023-06-12T01:04:17.912Z,14.20
2023-06-12T01:06:51.570Z,14.10
2023-06-12T01:09:27.497Z,14.00
2023-06-12T01:12:01.154Z,14.00
2023-06-12T01:14:29.743Z,13.90
2023-06-12T01:16:59.642Z,13.90
2023-06-12T01:19:28.500Z,13.90
2023-06-12T01:22:01.547Z,13.80
2023-06-12T01:24:43.502Z,13.90
2023-06-12T01:27:35.230Z,13.80
2023-06-12T01:30:24.584Z,13.70
2023-06-12T01:32:57.262Z,13.70
2023-06-12T01:35:31.311Z,13.60
2023-06-12T01:38:08.559Z,13.60
2023-06-12T01:40:40.149Z,13.60
2023-06-12T01:43:09.169Z,13.50
2023-06-12T01:45:40.893Z,13.60
2023-06-12T01:48:11.184Z,13.60
2023-06-12T01:50:39.572Z,13.60
2023-06-12T01:53:08.468Z,13.50
2023-06-12T01:55:37.340Z,13.50
2023-06-12T01:58:06.071Z,13.50
2023-06-12T02:00:54.619Z,13.40
2023-06-12T02:03:26.398Z,13.40
2023-06-12T02:05:54.717Z,13.30
2023-06-12T02:08:22.981Z,13.30
2023-06-12T02:10:51.284Z,13.30
2023-06-12T02:13:19.478Z,13.20
2023-06-12T02:15:48.454Z,13.30
2023-06-12T02:18:16.661Z,13.20
2023-06-12T02:20:46.324Z,13.20
2023-06-12T02:23:14.686Z,13.20
2023-06-12T02:25:43.011Z,13.20
2023-06-12T02:28:11.491Z,13.20
2023-06-12T02:30:40.113Z,13.20
2023-06-12T02:33:10.844Z,13.20
2023-06-12T02:35:39.466Z,13.20
2023-06-12T02:38:13.449Z,13.10
2023-06-12T02:40:41.712Z,13.10
2023-06-12T02:43:10.097Z,13.10
2023-06-12T02:45:38.815Z,13.00
2023-06-12T02:48:08.211Z,13.10
2023-06-12T02:50:40.448Z,13.10
2023-06-12T02:53:08.889Z,13.00
2023-06-12T02:55:40.996Z,13.00
2023-06-12T02:58:10.871Z,13.00
2023-06-12T03:00:39.034Z,13.10
2023-06-12T03:03:07.438Z,13.10
2023-06-12T03:05:37.215Z,13.10
2023-06-12T03:08:05.965Z,13.10
2023-06-12T03:10:34.302Z,13.10
2023-06-12T03:13:04.265Z,13.10
2023-06-12T03:15:32.450Z,13.10
2023-06-12T03:18:01.437Z,13.10
2023-06-12T03:20:29.684Z,13.00
2023-06-12T03:22:57.951Z,13.00
2023-06-12T03:25:26.380Z,13.00
2023-06-12T03:27:54.914Z,13.00
2023-06-12T03:30:24.391Z,13.00
2023-06-12T03:32:57.319Z,13.00
2023-06-12T03:35:26.056Z,12.90
2023-06-12T03:37:55.363Z,12.90
2023-06-12T03:40:23.573Z,12.90
2023-06-12T03:42:51.905Z,12.90
2023-06-12T03:45:20.743Z,12.90
2023-06-12T03:47:50.924Z,12.90
2023-06-12T03:50:20.819Z,12.90
2023-06-12T03:52:49.460Z,12.90
2023-06-12T03:55:22.112Z,12.90
2023-06-12T03:57:50.637Z,12.90
2023-06-12T04:00:20.948Z,12.90
2023-06-12T04:02:52.913Z,12.90
2023-06-12T04:05:23.248Z,12.90
2023-06-12T04:07:52.079Z,13.00
2023-06-12T04:10:21.575Z,13.00
2023-06-12T04:12:50.531Z,13.00
2023-06-12T04:15:20.204Z,13.10
2023-06-12T04:17:50.208Z,13.10
2023-06-12T04:20:18.870Z,13.10
2023-06-12T04:22:48.744Z,13.10
2023-06-12T04:25:17.154Z,13.10
2023-06-12T04:27:48.252Z,13.20
2023-06-12T04:30:17.876Z,13.20
2023-06-12T04:32:46.400Z,13.30
2023-06-12T04:35:17.526Z,13.40
2023-06-12T04:37:45.938Z,13.50
2023-06-12T04:40:15.468Z,13.60
2023-06-12T04:42:44.592Z,13.70
2023-06-12T04:45:14.628Z,13.80
2023-06-12T04:47:44.716Z,13.90
2023-06-12T04:50:16.077Z,13.90
2023-06-12T04:52:44.452Z,14.10
2023-06-12T04:55:13.201Z,14.20
2023-06-12T04:57:44.893Z,14.20
2023-06-12T05:00:16.591Z,14.40
2023-06-12T05:02:47.258Z,14.40
2023-06-12T05:05:16.896Z,14.60
2023-06-12T05:07:47.110Z,14.70
2023-06-12T05:10:17.395Z,14.70
2023-06-12T05:12:47.194Z,14.80
2023-06-12T05:15:16.012Z,14.90
2023-06-12T05:17:44.405Z,15.10
2023-06-12T05:20:13.900Z,15.20
2023-06-12T05:22:43.778Z,15.30
2023-06-12T05:25:12.054Z,15.50
2023-06-12T05:27:41.919Z,15.70
2023-06-12T05:30:11.354Z,15.80
2023-06-12T05:32:40.599Z,16.00
2023-06-12T05:35:10.283Z,16.20
2023-06-12T05:37:38.851Z,16.40
2023-06-12T05:40:11.055Z,16.50
2023-06-12T05:42:41.131Z,16.70
2023-06-12T05:45:10.421Z,16.80
2023-06-12T05:47:38.984Z,16.90
2023-06-12T05:50:09.765Z,17.00
2023-06-12T05:52:41.099Z,17.70
2023-06-12T05:55:11.872Z,18.60
2023-06-12T05:57:40.491Z,19.50
2023-06-12T06:00:12.362Z,20.20
2023-06-12T06:02:45.035Z,20.80
2023-06-12T06:05:22.787Z,21.50
2023-06-12T06:07:51.682Z,22.00
2023-06-12T06:10:21.915Z,22.40
2023-06-12T06:12:51.656Z,22.80
2023-06-12T06:15:20.108Z,23.10
2023-06-12T06:17:48.582Z,23.20
2023-06-12T06:20:18.584Z,23.30
2023-06-12T06:22:46.887Z,23.30
2023-06-12T06:25:16.629Z,23.50
2023-06-12T06:27:47.169Z,23.70
2023-06-12T06:30:16.074Z,23.80
2023-06-12T06:32:44.638Z,23.90
2023-06-12T06:35:13.278Z,24.00
2023-06-12T06:37:41.752Z,24.10
2023-06-12T06:40:11.322Z,24.20
2023-06-12T06:42:39.900Z,24.30
2023-06-12T06:45:15.179Z,24.30
2023-06-12T06:47:45.367Z,24.30
2023-06-12T06:50:14.005Z,24.30
2023-06-12T06:52:43.494Z,24.30
2023-06-12T06:55:14.027Z,24.40
2023-06-12T06:57:43.864Z,24.50
2023-06-12T07:00:14.932Z,24.60
2023-06-12T07:02:46.622Z,24.60
2023-06-12T07:05:18.059Z,24.70
2023-06-12T07:08:00.474Z,24.70
2023-06-12T07:10:32.424Z,24.90
2023-06-12T07:13:00.850Z,24.90
2023-06-12T07:15:37.374Z,24.90
2023-06-12T07:18:06.362Z,25.00
2023-06-12T07:20:34.721Z,25.10
2023-06-12T07:23:03.706Z,25.20
2023-06-12T07:25:31.971Z,25.40
2023-06-12T07:28:01.696Z,25.50
2023-06-12T07:30:30.057Z,25.60
2023-06-12T07:32:59.570Z,25.70
2023-06-12T07:35:27.886Z,25.90
2023-06-12T07:37:56.620Z,26.00
2023-06-12T07:40:24.993Z,26.10
2023-06-12T07:42:53.293Z,26.20
2023-06-12T07:45:22.101Z,26.30
2023-06-12T07:47:53.582Z,26.40
2023-06-12T07:50:27.392Z,26.70
2023-06-12T07:52:57.453Z,26.80
2023-06-12T07:55:28.055Z,27.10
2023-06-12T07:57:57.217Z,27.20
2023-06-12T08:00:28.029Z,27.40
2023-06-12T08:02:59.555Z,27.70
2023-06-12T08:05:36.841Z,27.90
2023-06-12T08:08:13.144Z,27.80
2023-06-12T08:10:43.054Z,27.60
2023-06-12T08:13:12.566Z,27.50
2023-06-12T08:15:41.617Z,27.50
2023-06-12T08:18:12.158Z,27.50
2023-06-12T08:20:44.858Z,27.60
2023-06-12T08:23:14.266Z,27.60
2023-06-12T08:25:42.904Z,27.70
2023-06-12T08:28:11.971Z,27.80
2023-06-12T08:30:40.255Z,27.80
2023-06-12T08:33:09.764Z,27.80
2023-06-12T08:35:39.000Z,27.90
2023-06-12T08:38:08.669Z,28.10
2023-06-12T08:40:37.331Z,28.40
2023-06-12T08:43:07.448Z,28.60
2023-06-12T08:45:41.983Z,28.60
2023-06-12T08:48:10.880Z,28.70
2023-06-12T08:50:41.618Z,28.70
2023-06-12T08:53:13.024Z,28.70
2023-06-12T08:55:41.922Z,28.80
2023-06-12T08:58:11.784Z,28.80
2023-06-12T09:00:41.103Z,28.90
2023-06-12T09:03:11.850Z,29.00
2023-06-12T09:05:41.868Z,29.10
2023-06-12T09:08:10.176Z,29.30
2023-06-12T09:10:41.098Z,29.40
2023-06-12T09:13:12.064Z,29.50
2023-06-12T09:15:51.109Z,29.50
2023-06-12T09:18:21.803Z,29.50
2023-06-12T09:20:51.758Z,29.40
2023-06-12T09:23:21.652Z,29.50
2023-06-12T09:26:13.918Z,29.70
2023-06-12T09:28:44.454Z,30.00
2023-06-12T09:31:12.891Z,30.10
2023-06-12T09:33:41.661Z,30.00
2023-06-12T09:36:13.477Z,29.90
2023-06-12T09:38:42.171Z,29.70
2023-06-12T09:41:12.086Z,29.90
2023-06-12T09:43:41.084Z,30.00
2023-06-12T09:46:10.127Z,30.00
2023-06-12T09:48:39.496Z,30.10
2023-06-12T09:51:09.453Z,30.00
2023-06-12T09:53:39.135Z,29.90
2023-06-12T09:56:08.992Z,29.60
2023-06-12T09:58:39.899Z,29.70
2023-06-12T10:01:09.579Z,29.70
2023-06-12T10:03:40.525Z,29.70
2023-06-12T10:06:11.365Z,29.70
2023-06-12T10:08:39.937Z,29.80
2023-06-12T10:11:10.291Z,30.00
2023-06-12T10:13:41.455Z,30.20
2023-06-12T10:16:10.828Z,30.20
2023-06-12T10:18:40.595Z,30.30
2023-06-12T10:21:09.046Z,30.40
2023-06-12T10:23:38.848Z,30.10
2023-06-12T10:26:07.661Z,29.70
2023-06-12T10:28:36.911Z,29.10
2023-06-12T10:31:14.547Z,28.60
2023-06-12T10:33:59.411Z,28.10
2023-06-12T10:36:37.275Z,28.50
2023-06-12T10:39:06.340Z,29.20
2023-06-12T10:41:35.605Z,30.00
2023-06-12T10:44:32.693Z,30.50
2023-06-12T10:47:03.949Z,30.90
2023-06-12T10:49:32.434Z,31.20
2023-06-12T10:52:01.439Z,31.50
2023-06-12T10:54:29.683Z,32.00
2023-06-12T10:57:00.686Z,32.50
2023-06-12T10:59:35.821Z,32.40
2023-06-12T11:02:10.143Z,32.10
2023-06-12T11:05:04.684Z,32.10
2023-06-12T11:07:34.067Z,32.40
2023-06-12T11:10:10.348Z,32.20
2023-06-12T11:12:52.078Z,31.60
2023-06-12T11:15:23.284Z,30.90
2023-06-12T11:17:54.115Z,30.30
2023-06-12T11:20:24.257Z,29.50
2023-06-12T11:23:01.920Z,29.40
2023-06-12T11:25:34.356Z,29.80
2023-06-12T11:28:03.599Z,30.40
2023-06-12T11:30:34.219Z,31.10
2023-06-12T11:33:15.024Z,31.60
2023-06-12T11:35:44.444Z,31.90
2023-06-12T11:40:47.512Z,32.60
2023-06-12T11:43:17.312Z,32.70
2023-06-12T11:45:46.263Z,32.60
2023-06-12T11:50:50.781Z,32.70
2023-06-12T11:53:21.329Z,32.70
2023-06-12T11:58:23.029Z,32.90
2023-06-12T12:00:52.874Z,32.80
2023-06-12T12:03:24.353Z,32.50
2023-06-12T12:05:54.174Z,31.90
2023-06-12T12:08:26.874Z,31.20
2023-06-12T12:10:55.270Z,30.80
2023-06-12T12:13:23.589Z,30.70
2023-06-12T12:15:51.895Z,30.20
2023-06-12T12:18:20.392Z,29.60
2023-06-12T12:20:53.136Z,29.30
2023-06-12T12:23:26.578Z,29.50
2023-06-12T12:25:55.030Z,29.80
2023-06-12T12:28:23.278Z,30.10
2023-06-12T12:30:51.582Z,30.60
2023-06-12T12:33:19.836Z,30.40
2023-06-12T12:35:48.163Z,30.10
2023-06-12T12:38:17.659Z,30.40
2023-06-12T12:40:46.166Z,30.50
2023-06-12T12:43:14.395Z,30.70
2023-06-12T12:45:42.810Z,30.80
2023-06-12T12:48:11.170Z,30.50
2023-06-12T12:50:51.966Z,30.40
2023-06-12T12:53:27.522Z,29.90
2023-06-12T12:55:55.953Z,29.30
2023-06-12T12:58:24.287Z,28.80
2023-06-12T13:00:52.809Z,28.70
2023-06-12T13:03:21.185Z,29.30
2023-06-12T13:05:49.688Z,30.10
2023-06-12T13:08:18.066Z,30.70
2023-06-12T13:10:47.781Z,31.30
2023-06-12T13:13:16.311Z,31.70
2023-06-12T13:15:45.798Z,32.10
2023-06-12T13:18:14.220Z,32.30
2023-06-12T13:20:42.828Z,32.40
2023-06-12T13:23:11.320Z,32.40
2023-06-12T13:25:40.715Z,32.70
2023-06-12T13:28:10.232Z,33.10
2023-06-12T13:30:38.983Z,33.00
2023-06-12T13:33:07.316Z,32.90
2023-06-12T13:35:39.090Z,32.50
2023-06-12T13:38:07.886Z,32.10
2023-06-12T13:40:37.457Z,31.40
2023-06-12T13:43:06.538Z,30.80
2023-06-12T13:45:37.371Z,31.00
2023-06-12T13:48:06.168Z,31.30
2023-06-12T13:50:34.875Z,31.60
2023-06-12T13:53:03.181Z,31.90
2023-06-12T13:55:31.463Z,32.20
2023-06-12T13:58:00.412Z,32.50
2023-06-12T14:00:28.795Z,32.70
2023-06-12T14:02:58.691Z,32.90
2023-06-12T14:05:27.105Z,32.90
2023-06-12T14:07:55.418Z,33.00
2023-06-12T14:10:25.444Z,33.20
2023-06-12T14:12:54.239Z,33.40
2023-06-12T14:15:24.004Z,33.40
2023-06-12T14:17:52.690Z,33.40
2023-06-12T14:20:23.812Z,33.70
2023-06-12T14:22:52.017Z,33.90
2023-06-12T14:25:20.663Z,33.80
2023-06-12T14:27:49.119Z,33.50
2023-06-12T14:30:17.580Z,33.30
2023-06-12T14:32:46.024Z,33.20
2023-06-12T14:35:14.706Z,32.90
2023-06-12T14:37:44.500Z,32.40
2023-06-12T14:40:13.668Z,32.10
2023-06-12T14:42:41.938Z,32.00
2023-06-12T14:45:11.193Z,32.00
2023-06-12T14:47:39.675Z,31.90
2023-06-12T14:50:08.444Z,32.20
2023-06-12T14:52:36.720Z,32.40
2023-06-12T14:55:07.247Z,32.50
2023-06-12T14:57:35.516Z,32.70
2023-06-12T15:00:04.862Z,32.90
2023-06-12T15:02:33.408Z,33.10
2023-06-12T15:05:01.755Z,33.20
2023-06-12T15:07:30.161Z,33.10
2023-06-12T15:09:58.485Z,33.10
2023-06-12T15:12:28.053Z,33.30
2023-06-12T15:14:56.346Z,33.50
2023-06-12T15:17:24.690Z,33.70
2023-06-12T15:19:53.636Z,33.70
2023-06-12T15:22:21.921Z,33.70
2023-06-12T15:24:50.340Z,33.70
2023-06-12T15:27:18.682Z,33.70
2023-06-12T15:29:48.388Z,33.80
2023-06-12T15:32:17.146Z,33.50
2023-06-12T15:34:46.037Z,33.10
2023-06-12T15:37:16.976Z,32.60
2023-06-12T15:39:47.637Z,32.50
2023-06-12T15:42:16.888Z,32.10
2023-06-12T15:44:46.496Z,31.70
2023-06-12T15:47:16.203Z,31.70
2023-06-12T15:49:44.572Z,31.80
2023-06-12T15:52:12.933Z,32.10
2023-06-12T15:54:41.318Z,32.20
2023-06-12T15:57:09.805Z,32.50
2023-06-12T15:59:39.164Z,32.40
2023-06-12T16:02:08.539Z,32.50
2023-06-12T16:04:41.628Z,32.50
2023-06-12T16:07:09.957Z,32.60
2023-06-12T16:09:38.350Z,32.50
2023-06-12T16:12:07.006Z,32.60
2023-06-12T16:14:35.348Z,32.80
2023-06-12T16:17:04.510Z,32.90
2023-06-12T16:19:33.070Z,32.90
2023-06-12T16:22:03.143Z,32.80
2023-06-12T16:24:31.657Z,32.70
2023-06-12T16:26:59.935Z,32.70
2023-06-12T16:29:30.377Z,32.70
2023-06-12T16:31:59.313Z,32.70
2023-06-12T16:34:27.595Z,32.70
2023-06-12T16:36:56.509Z,32.50
2023-06-12T16:39:26.649Z,32.40
2023-06-12T16:41:55.281Z,32.20
2023-06-12T16:44:23.550Z,32.10
2023-06-12T16:46:51.968Z,32.00
2023-06-12T16:49:23.911Z,32.00
2023-06-12T16:51:52.508Z,31.90
2023-06-12T16:54:20.766Z,31.90
2023-06-12T16:56:50.328Z,31.80
2023-06-12T16:59:18.776Z,31.70
2023-06-12T17:01:47.055Z,31.70
2023-06-12T17:04:15.773Z,31.60
2023-06-12T17:06:44.133Z,31.40
2023-06-12T17:09:13.354Z,31.40
2023-06-12T17:11:41.571Z,31.40
2023-06-12T17:14:11.780Z,31.40
2023-06-12T17:16:40.226Z,31.40
2023-06-12T17:19:09.350Z,31.20
2023-06-12T17:21:37.818Z,31.00
2023-06-12T17:24:07.148Z,30.90
2023-06-12T17:26:35.668Z,30.80
2023-06-12T17:29:04.816Z,30.70
2023-06-12T17:31:34.527Z,30.60
2023-06-12T17:34:03.875Z,30.40
2023-06-12T17:36:32.155Z,30.40
2023-06-12T17:39:00.502Z,30.30
2023-06-12T17:41:29.710Z,30.20
2023-06-12T17:43:58.099Z,30.00
2023-06-12T17:46:26.516Z,29.90
2023-06-12T17:48:56.515Z,29.80
2023-06-12T17:51:24.859Z,29.50
2023-06-12T17:53:53.963Z,29.40
2023-06-12T17:56:22.981Z,29.10
2023-06-12T17:58:51.837Z,28.80
2023-06-12T18:01:20.231Z,28.60
2023-06-12T18:03:48.719Z,28.40
2023-06-12T18:06:18.325Z,28.10
2023-06-12T18:08:46.638Z,27.90
2023-06-12T18:11:14.943Z,27.80
2023-06-12T18:13:43.248Z,27.70
2023-06-12T18:16:11.580Z,27.60
2023-06-12T18:18:40.842Z,27.40
2023-06-12T18:21:09.445Z,27.40
2023-06-12T18:23:39.373Z,27.20
2023-06-12T18:26:08.010Z,27.00
2023-06-12T18:28:36.593Z,26.90
2023-06-12T18:31:05.192Z,26.70
2023-06-12T18:33:33.679Z,26.50
2023-06-12T18:36:02.314Z,26.40
2023-06-12T18:38:30.671Z,26.20
2023-06-12T18:41:00.916Z,26.10
2023-06-12T18:43:29.209Z,25.90
2023-06-12T18:45:57.517Z,25.70
2023-06-12T18:48:26.145Z,25.60
2023-06-12T18:50:54.979Z,25.50
2023-06-12T18:53:23.295Z,25.30
2023-06-12T18:55:51.848Z,25.10
2023-06-12T18:58:22.596Z,25.00
2023-06-12T19:00:51.046Z,24.80
2023-06-12T19:03:19.549Z,24.70
2023-06-12T19:05:47.900Z,24.60
2023-06-12T19:08:16.254Z,24.40
2023-06-12T19:10:44.818Z,24.30
2023-06-12T19:13:13.356Z,24.10
2023-06-12T19:15:43.123Z,24.00
2023-06-12T19:18:11.432Z,23.80
2023-06-12T19:20:39.989Z,23.70
2023-06-12T19:23:08.276Z,23.60
2023-06-12T19:25:36.551Z,23.40
2023-06-12T19:28:05.710Z,23.30
2023-06-12T19:30:35.647Z,23.10
2023-06-12T19:33:05.596Z,23.00
2023-06-12T19:35:34.406Z,22.90
2023-06-12T19:38:02.834Z,22.80
2023-06-12T19:40:31.519Z,22.70
2023-06-12T19:42:59.904Z,22.60
2023-06-12T19:45:28.163Z,22.40
2023-06-12T19:47:56.666Z,22.30
2023-06-12T19:50:26.936Z,22.10
2023-06-12T19:52:55.200Z,22.00
2023-06-12T19:55:23.629Z,21.80
2023-06-12T19:57:51.938Z,21.60
2023-06-12T20:00:20.520Z,21.30
2023-06-12T20:02:49.232Z,21.10
2023-06-12T20:05:18.084Z,20.80
2023-06-12T20:07:47.897Z,20.60
2023-06-12T20:10:16.204Z,20.40
2023-06-12T20:12:44.593Z,20.20
2023-06-12T20:15:13.590Z,20.10
2023-06-12T20:17:42.220Z,19.90
2023-06-12T20:20:10.975Z,19.80
2023-06-12T20:22:40.067Z,19.60
2023-06-12T20:25:10.835Z,19.40
2023-06-12T20:27:46.482Z,19.10
2023-06-12T20:30:14.963Z,18.90
2023-06-12T20:32:43.600Z,18.70
2023-06-12T20:35:12.385Z,18.60
2023-06-12T20:37:40.889Z,18.50
2023-06-12T20:40:11.161Z,18.40
2023-06-12T20:42:39.502Z,18.40
2023-06-12T20:45:08.279Z,18.30
2023-06-12T20:47:36.938Z,18.20
2023-06-12T20:50:05.536Z,18.10
2023-06-12T20:52:34.758Z,18.00
2023-06-12T20:55:03.454Z,18.00
2023-06-12T20:57:33.133Z,17.90
2023-06-12T21:00:01.550Z,17.90
2023-06-12T21:02:30.962Z,17.80
2023-06-12T21:04:59.392Z,17.80
2023-06-12T21:07:27.831Z,17.70
2023-06-12T21:09:56.395Z,17.70
2023-06-12T21:12:24.705Z,17.60
2023-06-12T21:14:54.175Z,17.50
2023-06-12T21:17:22.600Z,17.50
2023-06-12T21:19:50.891Z,17.40
2023-06-12T21:22:37.144Z,17.30
2023-06-12T21:25:06.047Z,17.10
2023-06-12T21:27:34.564Z,17.00
2023-06-12T21:30:05.761Z,16.90
2023-06-12T21:32:34.806Z,16.80
2023-06-12T21:35:05.903Z,16.80
2023-06-12T21:37:34.231Z,16.70
2023-06-12T21:40:03.897Z,16.60
2023-06-12T21:42:32.230Z,16.60
2023-06-12T21:45:00.494Z,16.50
2023-06-12T21:47:30.959Z,16.50
2023-06-12T21:49:59.949Z,16.40
2023-06-12T21:52:28.208Z,16.20
2023-06-12T21:54:56.468Z,16.20
2023-06-12T21:57:24.882Z,16.10
2023-06-12T21:59:53.144Z,16.00
2023-06-12T22:02:21.502Z,15.90
2023-06-12T22:04:51.215Z,15.80
2023-06-12T22:07:19.498Z,15.80
2023-06-12T22:09:47.807Z,15.70
2023-06-12T22:12:16.063Z,15.60
2023-06-12T22:14:44.405Z,15.50
2023-06-12T22:17:12.700Z,15.50
2023-06-12T22:19:41.128Z,15.40
2023-06-12T22:22:10.707Z,15.30
2023-06-12T22:24:39.125Z,15.30
2023-06-12T22:27:08.205Z,15.30
2023-06-12T22:29:36.974Z,15.30
2023-06-12T22:32:05.670Z,15.30
2023-06-12T22:34:34.044Z,15.30
2023-06-12T22:37:02.444Z,15.20
2023-06-12T22:39:34.213Z,15.10
2023-06-12T22:42:02.454Z,15.00
2023-06-12T22:44:30.809Z,15.00
2023-06-12T22:47:00.559Z,14.90
2023-06-12T22:49:30.124Z,14.80
2023-06-12T22:51:58.468Z,14.70
2023-06-12T22:54:26.921Z,14.70
2023-06-12T22:56:56.434Z,14.60
2023-06-12T22:59:24.763Z,14.60
2023-06-12T23:01:53.081Z,14.50
2023-06-12T23:04:22.223Z,14.50
2023-06-12T23:06:50.529Z,14.40
2023-06-12T23:09:18.950Z,14.40
2023-06-12T23:11:47.402Z,14.30
2023-06-12T23:14:17.174Z,14.30
2023-06-12T23:16:47.321Z,14.20
2023-06-12T23:19:16.898Z,14.10
2023-06-12T23:21:45.143Z,14.10
2023-06-12T23:24:14.587Z,14.10
2023-06-12T23:26:43.186Z,14.00
2023-06-12T23:29:11.395Z,14.00
2023-06-12T23:31:41.063Z,14.00
2023-06-12T23:34:09.331Z,13.90
2023-06-12T23:36:40.189Z,13.90
2023-06-12T23:39:09.158Z,13.90
2023-06-12T23:41:38.093Z,13.80
2023-06-12T23:44:06.579Z,13.80
2023-06-12T23:46:35.274Z,13.80
2023-06-12T23:49:04.878Z,13.70
2023-06-12T23:51:33.182Z,13.70
2023-06-12T23:54:01.730Z,13.60
2023-06-12T23:56:30.078Z,13.60
2023-06-12T23:58:58.255Z,13.50
